sensor_id;sensor_type;location;lat;lon;timestamp;temperature;humidity
7606;DHT22;3844;53.360;9.738;2023-05-10T00:00:17;14.10;60.30
7606;DHT22;3844;53.360;9.738;2023-05-10T00:02:18;14.00;60.50
7606;DHT22;3844;53.360;9.738;2023-05-10T00:04:19;13.90;60.50
7606;DHT22;3844;53.360;9.738;2023-05-10T00:06:19;13.90;61.10
7606;DHT22;3844;53.360;9.738;2023-05-10T00:08:20;13.80;61.10
7606;DHT22;3844;53.360;9.738;2023-05-10T00:10:21;13.80;61.20
7606;DHT22;3844;53.360;9.738;2023-05-10T00:12:22;13.80;61.80
7606;DHT22;3844;53.360;9.738;2023-05-10T00:14:22;13.70;61.70
7606;DHT22;3844;53.360;9.738;2023-05-10T00:16:23;13.60;61.80
7606;DHT22;3844;53.360;9.738;2023-05-10T00:18:24;13.60;61.90
7606;DHT22;3844;53.360;9.738;2023-05-10T00:20:25;13.60;62.30
7606;DHT22;3844;53.360;9.738;2023-05-10T00:22:26;13.50;62.30
7606;DHT22;3844;53.360;9.738;2023-05-10T00:24:26;13.50;62.70
7606;DHT22;3844;53.360;9.738;2023-05-10T00:26:27;13.40;62.80
7606;DHT22;3844;53.360;9.738;2023-05-10T00:28:28;13.30;62.80
7606;DHT22;3844;53.360;9.738;2023-05-10T00:30:29;13.30;63.60
7606;DHT22;3844;53.360;9.738;2023-05-10T00:32:30;13.30;63.50
7606;DHT22;3844;53.360;9.738;2023-05-10T00:34:31;13.20;63.90
7606;DHT22;3844;53.360;9.738;2023-05-10T00:36:32;13.20;64.10
7606;DHT22;3844;53.360;9.738;2023-05-10T00:38:33;13.10;64.30
7606;DHT22;3844;53.360;9.738;2023-05-10T00:40:36;13.00;64.70
7606;DHT22;3844;53.360;9.738;2023-05-10T00:42:37;13.00;64.50
7606;DHT22;3844;53.360;9.738;2023-05-10T00:44:38;13.00;64.50
7606;DHT22;3844;53.360;9.738;2023-05-10T00:46:39;13.00;65.10
7606;DHT22;3844;53.360;9.738;2023-05-10T00:48:39;12.90;65.20
7606;DHT22;3844;53.360;9.738;2023-05-10T00:50:40;12.90;65.40
7606;DHT22;3844;53.360;9.738;2023-05-10T00:52:42;12.80;65.30
7606;DHT22;3844;53.360;9.738;2023-05-10T00:54:43;12.80;65.50
7606;DHT22;3844;53.360;9.738;2023-05-10T00:56:44;12.80;65.90
7606;DHT22;3844;53.360;9.738;2023-05-10T00:58:49;12.80;66.00
7606;DHT22;3844;53.360;9.738;2023-05-10T01:00:50;12.70;65.90
7606;DHT22;3844;53.360;9.738;2023-05-10T01:02:53;12.70;66.00
7606;DHT22;3844;53.360;9.738;2023-05-10T01:04:55;12.70;66.40
7606;DHT22;3844;53.360;9.738;2023-05-10T01:06:55;12.60;66.50
7606;DHT22;3844;53.360;9.738;2023-05-10T01:08:56;12.60;66.50
7606;DHT22;3844;53.360;9.738;2023-05-10T01:10:57;12.50;66.70
7606;DHT22;3844;53.360;9.738;2023-05-10T01:12:59;12.50;66.90
7606;DHT22;3844;53.360;9.738;2023-05-10T01:15:01;12.40;67.00
7606;DHT22;3844;53.360;9.738;2023-05-10T01:17:03;12.40;67.10
7606;DHT22;3844;53.360;9.738;2023-05-10T01:19:25;12.40;67.40
7606;DHT22;3844;53.360;9.738;2023-05-10T01:21:49;12.30;67.50
7606;DHT22;3844;53.360;9.738;2023-05-10T01:35:22;12.30;67.70
7606;DHT22;3844;53.360;9.738;2023-05-10T01:37:33;12.30;67.80
7606;DHT22;3844;53.360;9.738;2023-05-10T01:39:52;12.20;68.10
7606;DHT22;3844;53.360;9.738;2023-05-10T01:44:18;12.20;68.40
7606;DHT22;3844;53.360;9.738;2023-05-10T01:46:28;12.10;68.60
7606;DHT22;3844;53.360;9.738;2023-05-10T01:48:33;12.10;68.90
7606;DHT22;3844;53.360;9.738;2023-05-10T01:50:36;12.00;68.90
7606;DHT22;3844;53.360;9.738;2023-05-10T01:52:41;12.00;69.40
7606;DHT22;3844;53.360;9.738;2023-05-10T01:54:49;12.00;69.10
7606;DHT22;3844;53.360;9.738;2023-05-10T01:56:55;12.00;69.20
7606;DHT22;3844;53.360;9.738;2023-05-10T01:59:00;12.00;69.30
7606;DHT22;3844;53.360;9.738;2023-05-10T02:01:04;12.00;69.20
7606;DHT22;3844;53.360;9.738;2023-05-10T02:03:07;11.90;69.40
7606;DHT22;3844;53.360;9.738;2023-05-10T02:05:09;11.90;70.10
7606;DHT22;3844;53.360;9.738;2023-05-10T02:07:13;11.90;69.70
7606;DHT22;3844;53.360;9.738;2023-05-10T02:09:15;11.90;70.20
7606;DHT22;3844;53.360;9.738;2023-05-10T02:11:17;11.80;70.20
7606;DHT22;3844;53.360;9.738;2023-05-10T02:13:19;11.80;70.40
7606;DHT22;3844;53.360;9.738;2023-05-10T02:15:24;11.80;70.60
7606;DHT22;3844;53.360;9.738;2023-05-10T02:17:26;11.70;71.20
7606;DHT22;3844;53.360;9.738;2023-05-10T02:19:29;11.70;71.10
7606;DHT22;3844;53.360;9.738;2023-05-10T02:21:31;11.70;71.30
7606;DHT22;3844;53.360;9.738;2023-05-10T02:23:33;11.70;71.70
7606;DHT22;3844;53.360;9.738;2023-05-10T02:25:37;11.60;71.80
7606;DHT22;3844;53.360;9.738;2023-05-10T02:27:38;11.60;71.80
7606;DHT22;3844;53.360;9.738;2023-05-10T02:29:42;11.60;72.00
7606;DHT22;3844;53.360;9.738;2023-05-10T02:31:43;11.60;71.80
7606;DHT22;3844;53.360;9.738;2023-05-10T02:33:46;11.50;72.40
7606;DHT22;3844;53.360;9.738;2023-05-10T02:35:47;11.50;72.30
7606;DHT22;3844;53.360;9.738;2023-05-10T02:37:49;11.50;72.30
7606;DHT22;3844;53.360;9.738;2023-05-10T02:39:53;11.50;72.90
7606;DHT22;3844;53.360;9.738;2023-05-10T02:41:54;11.50;72.50
7606;DHT22;3844;53.360;9.738;2023-05-10T02:43:59;11.50;72.90
7606;DHT22;3844;53.360;9.738;2023-05-10T02:46:00;11.50;72.90
7606;DHT22;3844;53.360;9.738;2023-05-10T02:48:01;11.40;73.10
7606;DHT22;3844;53.360;9.738;2023-05-10T02:50:03;11.40;72.70
7606;DHT22;3844;53.360;9.738;2023-05-10T02:52:05;11.40;72.90
7606;DHT22;3844;53.360;9.738;2023-05-10T02:54:19;11.40;72.70
7606;DHT22;3844;53.360;9.738;2023-05-10T02:56:25;11.40;73.20
7606;DHT22;3844;53.360;9.738;2023-05-10T02:58:29;11.40;73.50
7606;DHT22;3844;53.360;9.738;2023-05-10T03:00:30;11.40;73.60
7606;DHT22;3844;53.360;9.738;2023-05-10T03:02:31;11.40;73.30
7606;DHT22;3844;53.360;9.738;2023-05-10T03:04:32;11.40;73.70
7606;DHT22;3844;53.360;9.738;2023-05-10T03:06:32;11.40;73.60
7606;DHT22;3844;53.360;9.738;2023-05-10T03:08:33;11.40;73.60
7606;DHT22;3844;53.360;9.738;2023-05-10T03:10:41;11.40;73.70
7606;DHT22;3844;53.360;9.738;2023-05-10T03:13:07;11.40;73.70
7606;DHT22;3844;53.360;9.738;2023-05-10T03:18:13;11.40;74.00
7606;DHT22;3844;53.360;9.738;2023-05-10T03:20:26;11.40;73.80
7606;DHT22;3844;53.360;9.738;2023-05-10T03:22:38;11.40;74.00
7606;DHT22;3844;53.360;9.738;2023-05-10T03:24:41;11.40;74.00
7606;DHT22;3844;53.360;9.738;2023-05-10T03:26:44;11.40;73.90
7606;DHT22;3844;53.360;9.738;2023-05-10T03:28:47;11.40;73.90
7606;DHT22;3844;53.360;9.738;2023-05-10T03:30:49;11.40;73.80
7606;DHT22;3844;53.360;9.738;2023-05-10T03:32:51;11.40;74.20
7606;DHT22;3844;53.360;9.738;2023-05-10T03:34:51;11.40;74.30
7606;DHT22;3844;53.360;9.738;2023-05-10T03:36:52;11.30;74.60
7606;DHT22;3844;53.360;9.738;2023-05-10T03:38:53;11.30;74.40
7606;DHT22;3844;53.360;9.738;2023-05-10T03:42:56;11.30;74.80
7606;DHT22;3844;53.360;9.738;2023-05-10T03:44:56;11.30;74.80
7606;DHT22;3844;53.360;9.738;2023-05-10T03:46:57;11.30;75.10
7606;DHT22;3844;53.360;9.738;2023-05-10T03:48:58;11.20;75.10
7606;DHT22;3844;53.360;9.738;2023-05-10T03:50:59;11.30;74.90
7606;DHT22;3844;53.360;9.738;2023-05-10T03:53:00;11.30;74.90
7606;DHT22;3844;53.360;9.738;2023-05-10T03:55:01;11.30;75.10
7606;DHT22;3844;53.360;9.738;2023-05-10T03:57:04;11.30;75.40
7606;DHT22;3844;53.360;9.738;2023-05-10T03:59:04;11.40;75.00
7606;DHT22;3844;53.360;9.738;2023-05-10T04:01:07;11.40;74.80
7606;DHT22;3844;53.360;9.738;2023-05-10T04:03:08;11.40;74.80
7606;DHT22;3844;53.360;9.738;2023-05-10T04:05:10;11.50;74.80
7606;DHT22;3844;53.360;9.738;2023-05-10T04:07:10;11.50;74.80
7606;DHT22;3844;53.360;9.738;2023-05-10T04:09:11;11.60;74.90
7606;DHT22;3844;53.360;9.738;2023-05-10T04:11:12;11.60;75.10
7606;DHT22;3844;53.360;9.738;2023-05-10T04:13:14;11.60;74.90
7606;DHT22;3844;53.360;9.738;2023-05-10T04:15:14;11.70;74.60
7606;DHT22;3844;53.360;9.738;2023-05-10T04:17:15;11.70;74.60
7606;DHT22;3844;53.360;9.738;2023-05-10T04:19:16;11.70;74.70
7606;DHT22;3844;53.360;9.738;2023-05-10T04:21:17;11.80;74.30
7606;DHT22;3844;53.360;9.738;2023-05-10T04:23:18;11.80;74.60
7606;DHT22;3844;53.360;9.738;2023-05-10T04:25:18;11.90;74.30
7606;DHT22;3844;53.360;9.738;2023-05-10T04:27:19;12.00;74.20
7606;DHT22;3844;53.360;9.738;2023-05-10T04:29:20;12.00;74.40
7606;DHT22;3844;53.360;9.738;2023-05-10T04:31:21;12.10;73.90
7606;DHT22;3844;53.360;9.738;2023-05-10T04:33:22;12.10;73.30
7606;DHT22;3844;53.360;9.738;2023-05-10T04:35:23;12.20;73.50
7606;DHT22;3844;53.360;9.738;2023-05-10T04:37:23;12.20;73.20
7606;DHT22;3844;53.360;9.738;2023-05-10T04:39:24;12.30;73.10
7606;DHT22;3844;53.360;9.738;2023-05-10T04:41:25;12.30;73.30
7606;DHT22;3844;53.360;9.738;2023-05-10T04:43:26;12.40;73.40
7606;DHT22;3844;53.360;9.738;2023-05-10T04:45:27;12.50;72.80
7606;DHT22;3844;53.360;9.738;2023-05-10T04:47:27;12.50;72.70
7606;DHT22;3844;53.360;9.738;2023-05-10T04:49:29;12.70;72.80
7606;DHT22;3844;53.360;9.738;2023-05-10T04:51:30;12.90;72.70
7606;DHT22;3844;53.360;9.738;2023-05-10T04:53:31;13.00;72.20
7606;DHT22;3844;53.360;9.738;2023-05-10T04:55:32;13.10;71.10
7606;DHT22;3844;53.360;9.738;2023-05-10T04:57:33;13.30;71.40
7606;DHT22;3844;53.360;9.738;2023-05-10T04:59:36;13.50;70.60
7606;DHT22;3844;53.360;9.738;2023-05-10T05:01:37;13.70;70.70
7606;DHT22;3844;53.360;9.738;2023-05-10T05:03:38;13.70;69.60
7606;DHT22;3844;53.360;9.738;2023-05-10T05:05:39;13.70;69.80
7606;DHT22;3844;53.360;9.738;2023-05-10T05:07:40;13.80;69.50
7606;DHT22;3844;53.360;9.738;2023-05-10T05:09:40;13.80;69.20
7606;DHT22;3844;53.360;9.738;2023-05-10T05:11:41;13.80;69.70
7606;DHT22;3844;53.360;9.738;2023-05-10T05:13:42;13.90;69.50
7606;DHT22;3844;53.360;9.738;2023-05-10T05:15:42;14.00;69.30
7606;DHT22;3844;53.360;9.738;2023-05-10T05:17:43;14.00;69.30
7606;DHT22;3844;53.360;9.738;2023-05-10T05:19:44;14.10;69.30
7606;DHT22;3844;53.360;9.738;2023-05-10T05:21:45;14.10;69.20
7606;DHT22;3844;53.360;9.738;2023-05-10T05:23:46;14.20;69.00
7606;DHT22;3844;53.360;9.738;2023-05-10T05:25:46;14.20;69.10
7606;DHT22;3844;53.360;9.738;2023-05-10T05:29:48;14.30;68.70
7606;DHT22;3844;53.360;9.738;2023-05-10T05:31:49;14.20;68.40
7606;DHT22;3844;53.360;9.738;2023-05-10T05:33:50;14.20;68.50
7606;DHT22;3844;53.360;9.738;2023-05-10T05:35:50;14.10;69.60
7606;DHT22;3844;53.360;9.738;2023-05-10T05:37:51;14.10;69.60
7606;DHT22;3844;53.360;9.738;2023-05-10T05:39:52;14.10;69.40
7606;DHT22;3844;53.360;9.738;2023-05-10T05:41:52;14.20;69.40
7606;DHT22;3844;53.360;9.738;2023-05-10T05:43:53;14.20;68.90
7606;DHT22;3844;53.360;9.738;2023-05-10T05:45:55;14.30;69.60
7606;DHT22;3844;53.360;9.738;2023-05-10T05:47:56;14.40;69.30
7606;DHT22;3844;53.360;9.738;2023-05-10T05:49:57;14.50;69.30
7606;DHT22;3844;53.360;9.738;2023-05-10T05:52:04;14.60;69.40
7606;DHT22;3844;53.360;9.738;2023-05-10T05:54:05;14.70;68.50
7606;DHT22;3844;53.360;9.738;2023-05-10T05:56:05;14.80;68.80
7606;DHT22;3844;53.360;9.738;2023-05-10T05:58:06;15.00;69.00
7606;DHT22;3844;53.360;9.738;2023-05-10T06:00:07;15.10;68.30
7606;DHT22;3844;53.360;9.738;2023-05-10T06:02:09;15.20;68.20
7606;DHT22;3844;53.360;9.738;2023-05-10T06:04:10;15.20;67.70
7606;DHT22;3844;53.360;9.738;2023-05-10T06:06:11;15.10;67.20
7606;DHT22;3844;53.360;9.738;2023-05-10T06:08:12;15.00;67.20
7606;DHT22;3844;53.360;9.738;2023-05-10T06:10:13;15.00;67.70
7606;DHT22;3844;53.360;9.738;2023-05-10T06:12:14;15.10;68.10
7606;DHT22;3844;53.360;9.738;2023-05-10T06:14:14;15.20;67.90
7606;DHT22;3844;53.360;9.738;2023-05-10T06:16:15;15.50;67.90
7606;DHT22;3844;53.360;9.738;2023-05-10T06:18:16;15.70;67.80
7606;DHT22;3844;53.360;9.738;2023-05-10T06:22:18;15.80;66.60
7606;DHT22;3844;53.360;9.738;2023-05-10T06:24:19;15.80;66.60
7606;DHT22;3844;53.360;9.738;2023-05-10T06:26:19;15.80;66.80
7606;DHT22;3844;53.360;9.738;2023-05-10T06:28:21;16.00;66.60
7606;DHT22;3844;53.360;9.738;2023-05-10T06:30:22;16.00;66.10
7606;DHT22;3844;53.360;9.738;2023-05-10T06:32:27;16.10;65.90
7606;DHT22;3844;53.360;9.738;2023-05-10T06:34:28;16.30;66.10
7606;DHT22;3844;53.360;9.738;2023-05-10T06:36:29;16.40;64.90
7606;DHT22;3844;53.360;9.738;2023-05-10T06:38:29;16.40;64.40
7606;DHT22;3844;53.360;9.738;2023-05-10T06:40:30;16.30;63.90
7606;DHT22;3844;53.360;9.738;2023-05-10T06:44:32;16.10;65.40
7606;DHT22;3844;53.360;9.738;2023-05-10T06:46:33;16.10;65.00
7606;DHT22;3844;53.360;9.738;2023-05-10T06:48:34;16.20;64.50
7606;DHT22;3844;53.360;9.738;2023-05-10T06:50:35;16.10;64.80
7606;DHT22;3844;53.360;9.738;2023-05-10T06:52:35;16.10;65.40
7606;DHT22;3844;53.360;9.738;2023-05-10T06:54:36;16.20;65.40
7606;DHT22;3844;53.360;9.738;2023-05-10T06:56:37;16.30;65.40
7606;DHT22;3844;53.360;9.738;2023-05-10T06:58:38;16.40;65.80
7606;DHT22;3844;53.360;9.738;2023-05-10T07:00:38;16.40;64.90
7606;DHT22;3844;53.360;9.738;2023-05-10T07:02:40;16.30;64.90
7606;DHT22;3844;53.360;9.738;2023-05-10T07:04:41;16.20;64.80
7606;DHT22;3844;53.360;9.738;2023-05-10T07:06:42;16.10;65.30
7606;DHT22;3844;53.360;9.738;2023-05-10T07:08:42;15.90;66.00
7606;DHT22;3844;53.360;9.738;2023-05-10T07:10:43;15.80;66.80
7606;DHT22;3844;53.360;9.738;2023-05-10T07:12:44;15.70;67.10
7606;DHT22;3844;53.360;9.738;2023-05-10T07:16:46;15.70;67.40
7606;DHT22;3844;53.360;9.738;2023-05-10T07:18:47;15.60;68.20
7606;DHT22;3844;53.360;9.738;2023-05-10T07:20:48;15.50;68.40
7606;DHT22;3844;53.360;9.738;2023-05-10T07:24:50;15.40;70.90
7606;DHT22;3844;53.360;9.738;2023-05-10T07:26:50;15.30;71.60
7606;DHT22;3844;53.360;9.738;2023-05-10T07:28:51;15.30;71.30
7606;DHT22;3844;53.360;9.738;2023-05-10T07:30:52;15.30;72.60
7606;DHT22;3844;53.360;9.738;2023-05-10T07:32:53;15.30;74.60
7606;DHT22;3844;53.360;9.738;2023-05-10T07:34:53;15.30;74.20
7606;DHT22;3844;53.360;9.738;2023-05-10T07:36:54;15.20;73.60
7606;DHT22;3844;53.360;9.738;2023-05-10T07:38:55;15.20;73.70
7606;DHT22;3844;53.360;9.738;2023-05-10T07:40:57;15.20;74.70
7606;DHT22;3844;53.360;9.738;2023-05-10T07:42:58;15.20;75.90
7606;DHT22;3844;53.360;9.738;2023-05-10T07:45:00;15.30;74.20
7606;DHT22;3844;53.360;9.738;2023-05-10T07:47:01;15.30;75.60
7606;DHT22;3844;53.360;9.738;2023-05-10T07:49:01;15.40;75.70
7606;DHT22;3844;53.360;9.738;2023-05-10T07:51:02;15.50;75.70
7606;DHT22;3844;53.360;9.738;2023-05-10T07:53:03;15.50;74.40
7606;DHT22;3844;53.360;9.738;2023-05-10T07:55:04;15.60;74.60
7606;DHT22;3844;53.360;9.738;2023-05-10T07:57:05;15.60;74.10
7606;DHT22;3844;53.360;9.738;2023-05-10T07:59:06;15.60;74.70
7606;DHT22;3844;53.360;9.738;2023-05-10T08:01:07;15.60;74.60
7606;DHT22;3844;53.360;9.738;2023-05-10T08:03:08;15.50;73.50
7606;DHT22;3844;53.360;9.738;2023-05-10T08:05:08;15.50;74.90
7606;DHT22;3844;53.360;9.738;2023-05-10T08:07:09;15.50;74.80
7606;DHT22;3844;53.360;9.738;2023-05-10T08:09:11;15.50;74.00
7606;DHT22;3844;53.360;9.738;2023-05-10T08:11:12;15.50;75.70
7606;DHT22;3844;53.360;9.738;2023-05-10T08:13:12;15.60;75.60
7606;DHT22;3844;53.360;9.738;2023-05-10T08:17:14;15.90;75.30
7606;DHT22;3844;53.360;9.738;2023-05-10T08:19:15;16.00;75.60
7606;DHT22;3844;53.360;9.738;2023-05-10T08:21:19;16.10;75.40
7606;DHT22;3844;53.360;9.738;2023-05-10T08:23:20;16.10;75.40
7606;DHT22;3844;53.360;9.738;2023-05-10T08:25:21;16.10;75.20
7606;DHT22;3844;53.360;9.738;2023-05-10T08:27:21;16.10;75.20
7606;DHT22;3844;53.360;9.738;2023-05-10T08:29:22;16.10;75.20
7606;DHT22;3844;53.360;9.738;2023-05-10T08:31:23;16.10;75.60
7606;DHT22;3844;53.360;9.738;2023-05-10T08:33:23;16.00;75.40
7606;DHT22;3844;53.360;9.738;2023-05-10T08:35:24;15.90;75.60
7606;DHT22;3844;53.360;9.738;2023-05-10T08:37:25;15.80;75.80
7606;DHT22;3844;53.360;9.738;2023-05-10T08:39:26;15.70;77.30
7606;DHT22;3844;53.360;9.738;2023-05-10T08:41:28;15.60;77.20
7606;DHT22;3844;53.360;9.738;2023-05-10T08:43:31;15.40;77.90
7606;DHT22;3844;53.360;9.738;2023-05-10T08:45:33;15.30;78.30
7606;DHT22;3844;53.360;9.738;2023-05-10T08:47:38;15.10;80.10
7606;DHT22;3844;53.360;9.738;2023-05-10T08:49:39;14.90;79.90
7606;DHT22;3844;53.360;9.738;2023-05-10T08:51:43;14.80;80.80
7606;DHT22;3844;53.360;9.738;2023-05-10T08:53:45;14.60;81.60
7606;DHT22;3844;53.360;9.738;2023-05-10T08:55:46;14.40;82.50
7606;DHT22;3844;53.360;9.738;2023-05-10T08:57:47;14.30;82.50
7606;DHT22;3844;53.360;9.738;2023-05-10T08:59:48;14.30;83.60
7606;DHT22;3844;53.360;9.738;2023-05-10T09:01:49;14.30;84.00
7606;DHT22;3844;53.360;9.738;2023-05-10T09:03:50;14.20;84.60
7606;DHT22;3844;53.360;9.738;2023-05-10T09:05:51;14.20;85.50
7606;DHT22;3844;53.360;9.738;2023-05-10T09:07:52;14.00;86.50
7606;DHT22;3844;53.360;9.738;2023-05-10T09:09:54;13.90;87.90
7606;DHT22;3844;53.360;9.738;2023-05-10T09:11:55;13.90;88.30
7606;DHT22;3844;53.360;9.738;2023-05-10T09:13:56;13.80;88.50
7606;DHT22;3844;53.360;9.738;2023-05-10T09:15:57;13.80;88.90
7606;DHT22;3844;53.360;9.738;2023-05-10T09:17:58;13.90;89.50
7606;DHT22;3844;53.360;9.738;2023-05-10T09:20:03;13.90;89.70
7606;DHT22;3844;53.360;9.738;2023-05-10T09:22:04;13.90;90.30
7606;DHT22;3844;53.360;9.738;2023-05-10T09:24:07;13.90;90.70
7606;DHT22;3844;53.360;9.738;2023-05-10T09:26:08;13.90;90.70
7606;DHT22;3844;53.360;9.738;2023-05-10T09:28:09;13.90;90.00
7606;DHT22;3844;53.360;9.738;2023-05-10T09:30:10;13.80;90.00
7606;DHT22;3844;53.360;9.738;2023-05-10T09:32:11;13.80;90.50
7606;DHT22;3844;53.360;9.738;2023-05-10T09:34:19;13.80;90.30
7606;DHT22;3844;53.360;9.738;2023-05-10T09:36:21;13.70;90.00
7606;DHT22;3844;53.360;9.738;2023-05-10T09:38:22;13.60;90.40
7606;DHT22;3844;53.360;9.738;2023-05-10T09:40:24;13.60;90.90
7606;DHT22;3844;53.360;9.738;2023-05-10T09:42:25;13.60;90.90
7606;DHT22;3844;53.360;9.738;2023-05-10T09:44:26;13.60;91.10
7606;DHT22;3844;53.360;9.738;2023-05-10T09:46:27;13.70;91.10
7606;DHT22;3844;53.360;9.738;2023-05-10T09:48:28;13.90;91.00
7606;DHT22;3844;53.360;9.738;2023-05-10T09:50:30;13.90;89.90
7606;DHT22;3844;53.360;9.738;2023-05-10T09:52:46;14.00;90.20
7606;DHT22;3844;53.360;9.738;2023-05-10T09:54:54;14.10;90.10
7606;DHT22;3844;53.360;9.738;2023-05-10T09:56:55;14.20;90.40
7606;DHT22;3844;53.360;9.738;2023-05-10T09:59:02;14.30;89.90
7606;DHT22;3844;53.360;9.738;2023-05-10T10:01:03;14.30;89.70
7606;DHT22;3844;53.360;9.738;2023-05-10T10:03:04;14.20;88.90
7606;DHT22;3844;53.360;9.738;2023-05-10T10:05:06;14.00;90.00
7606;DHT22;3844;53.360;9.738;2023-05-10T10:07:08;14.10;90.40
7606;DHT22;3844;53.360;9.738;2023-05-10T10:09:09;14.20;90.40
7606;DHT22;3844;53.360;9.738;2023-05-10T10:11:10;14.40;90.10
7606;DHT22;3844;53.360;9.738;2023-05-10T10:13:10;14.50;89.80
7606;DHT22;3844;53.360;9.738;2023-05-10T10:15:11;14.60;88.60
7606;DHT22;3844;53.360;9.738;2023-05-10T10:17:13;14.60;89.50
7606;DHT22;3844;53.360;9.738;2023-05-10T10:19:13;14.70;89.80
7606;DHT22;3844;53.360;9.738;2023-05-10T10:21:15;14.70;89.00
7606;DHT22;3844;53.360;9.738;2023-05-10T10:23:17;14.80;88.30
7606;DHT22;3844;53.360;9.738;2023-05-10T10:25:19;14.60;88.70
7606;DHT22;3844;53.360;9.738;2023-05-10T10:32:06;14.60;90.30
7606;DHT22;3844;53.360;9.738;2023-05-10T10:34:11;14.70;90.40
7606;DHT22;3844;53.360;9.738;2023-05-10T10:36:17;14.70;90.30
7606;DHT22;3844;53.360;9.738;2023-05-10T10:38:19;14.80;90.00
7606;DHT22;3844;53.360;9.738;2023-05-10T10:40:32;14.80;90.00
7606;DHT22;3844;53.360;9.738;2023-05-10T10:42:45;14.80;90.20
7606;DHT22;3844;53.360;9.738;2023-05-10T10:45:13;14.90;89.80
7606;DHT22;3844;53.360;9.738;2023-05-10T10:49:19;15.00;89.80
7606;DHT22;3844;53.360;9.738;2023-05-10T10:51:20;15.00;89.20
7606;DHT22;3844;53.360;9.738;2023-05-10T10:53:21;15.00;89.40
7606;DHT22;3844;53.360;9.738;2023-05-10T10:55:22;15.00;89.70
7606;DHT22;3844;53.360;9.738;2023-05-10T10:57:28;15.00;89.50
7606;DHT22;3844;53.360;9.738;2023-05-10T10:59:31;15.00;90.20
7606;DHT22;3844;53.360;9.738;2023-05-10T11:01:34;15.10;90.50
7606;DHT22;3844;53.360;9.738;2023-05-10T11:03:35;15.20;89.50
7606;DHT22;3844;53.360;9.738;2023-05-10T11:05:41;15.20;89.30
7606;DHT22;3844;53.360;9.738;2023-05-10T11:08:18;15.30;89.10
7606;DHT22;3844;53.360;9.738;2023-05-10T11:10:22;15.50;88.60
7606;DHT22;3844;53.360;9.738;2023-05-10T11:12:23;15.60;89.00
7606;DHT22;3844;53.360;9.738;2023-05-10T11:14:27;15.80;88.40
7606;DHT22;3844;53.360;9.738;2023-05-10T11:16:27;16.00;87.20
7606;DHT22;3844;53.360;9.738;2023-05-10T11:18:30;16.10;87.70
7606;DHT22;3844;53.360;9.738;2023-05-10T11:20:39;16.30;86.90
7606;DHT22;3844;53.360;9.738;2023-05-10T11:22:50;16.40;86.00
7606;DHT22;3844;53.360;9.738;2023-05-10T11:24:59;16.50;86.90
7606;DHT22;3844;53.360;9.738;2023-05-10T11:27:03;16.60;87.20
7606;DHT22;3844;53.360;9.738;2023-05-10T11:29:10;16.70;86.90
7606;DHT22;3844;53.360;9.738;2023-05-10T11:31:16;16.70;86.90
7606;DHT22;3844;53.360;9.738;2023-05-10T11:33:18;16.80;87.10
7606;DHT22;3844;53.360;9.738;2023-05-10T11:35:20;16.90;87.20
7606;DHT22;3844;53.360;9.738;2023-05-10T11:39:29;17.00;86.60
7606;DHT22;3844;53.360;9.738;2023-05-10T11:41:30;17.00;86.80
7606;DHT22;3844;53.360;9.738;2023-05-10T11:43:31;17.20;87.50
7606;DHT22;3844;53.360;9.738;2023-05-10T11:45:33;17.40;85.50
7606;DHT22;3844;53.360;9.738;2023-05-10T11:47:34;17.40;85.80
7606;DHT22;3844;53.360;9.738;2023-05-10T11:49:37;17.50;85.70
7606;DHT22;3844;53.360;9.738;2023-05-10T11:51:38;17.60;85.10
7606;DHT22;3844;53.360;9.738;2023-05-10T11:53:39;17.50;84.90
7606;DHT22;3844;53.360;9.738;2023-05-10T11:55:40;17.50;85.30
7606;DHT22;3844;53.360;9.738;2023-05-10T11:57:41;17.50;85.00
7606;DHT22;3844;53.360;9.738;2023-05-10T12:01:46;17.70;85.90
7606;DHT22;3844;53.360;9.738;2023-05-10T12:03:47;17.80;84.80
7606;DHT22;3844;53.360;9.738;2023-05-10T12:05:48;17.80;85.20
7606;DHT22;3844;53.360;9.738;2023-05-10T12:07:49;17.90;85.10
7606;DHT22;3844;53.360;9.738;2023-05-10T12:10:06;17.90;85.20
7606;DHT22;3844;53.360;9.738;2023-05-10T12:12:08;17.90;84.30
7606;DHT22;3844;53.360;9.738;2023-05-10T12:14:09;17.80;83.50
7606;DHT22;3844;53.360;9.738;2023-05-10T12:16:17;17.70;84.70
7606;DHT22;3844;53.360;9.738;2023-05-10T12:18:23;17.50;84.40
7606;DHT22;3844;53.360;9.738;2023-05-10T12:20:27;17.50;85.40
7606;DHT22;3844;53.360;9.738;2023-05-10T12:22:28;17.60;85.80
7606;DHT22;3844;53.360;9.738;2023-05-10T12:24:29;17.80;86.40
7606;DHT22;3844;53.360;9.738;2023-05-10T12:26:35;18.00;84.50
7606;DHT22;3844;53.360;9.738;2023-05-10T12:28:37;18.00;84.70
7606;DHT22;3844;53.360;9.738;2023-05-10T12:30:38;18.20;84.90
7606;DHT22;3844;53.360;9.738;2023-05-10T12:32:40;18.30;83.00
7606;DHT22;3844;53.360;9.738;2023-05-10T12:34:41;18.30;83.40
7606;DHT22;3844;53.360;9.738;2023-05-10T12:36:42;18.30;83.80
7606;DHT22;3844;53.360;9.738;2023-05-10T12:38:44;18.30;84.20
7606;DHT22;3844;53.360;9.738;2023-05-10T12:40:48;18.40;84.60
7606;DHT22;3844;53.360;9.738;2023-05-10T12:42:48;18.50;84.30
7606;DHT22;3844;53.360;9.738;2023-05-10T12:44:49;18.50;82.90
7606;DHT22;3844;53.360;9.738;2023-05-10T12:46:50;18.50;83.40
7606;DHT22;3844;53.360;9.738;2023-05-10T12:48:51;18.40;83.30
7606;DHT22;3844;53.360;9.738;2023-05-10T12:50:55;18.50;83.60
7606;DHT22;3844;53.360;9.738;2023-05-10T12:52:56;18.70;83.60
7606;DHT22;3844;53.360;9.738;2023-05-10T12:54:56;18.80;83.50
7606;DHT22;3844;53.360;9.738;2023-05-10T12:56:57;19.00;82.90
7606;DHT22;3844;53.360;9.738;2023-05-10T12:58:58;19.20;81.20
7606;DHT22;3844;53.360;9.738;2023-05-10T13:01:02;19.30;81.30
7606;DHT22;3844;53.360;9.738;2023-05-10T13:03:06;19.20;80.70
7606;DHT22;3844;53.360;9.738;2023-05-10T13:05:07;19.30;81.20
7606;DHT22;3844;53.360;9.738;2023-05-10T13:07:08;19.40;81.00
7606;DHT22;3844;53.360;9.738;2023-05-10T13:09:09;19.40;81.70
7606;DHT22;3844;53.360;9.738;2023-05-10T13:11:10;19.30;81.70
7606;DHT22;3844;53.360;9.738;2023-05-10T13:13:10;19.00;81.40
7606;DHT22;3844;53.360;9.738;2023-05-10T13:15:11;18.90;82.70
7606;DHT22;3844;53.360;9.738;2023-05-10T13:17:12;18.90;82.20
7606;DHT22;3844;53.360;9.738;2023-05-10T13:19:14;18.90;82.20
7606;DHT22;3844;53.360;9.738;2023-05-10T13:21:14;19.00;82.80
7606;DHT22;3844;53.360;9.738;2023-05-10T13:23:15;19.00;82.60
7606;DHT22;3844;53.360;9.738;2023-05-10T13:25:16;19.10;82.10
7606;DHT22;3844;53.360;9.738;2023-05-10T13:27:17;19.10;82.30
7606;DHT22;3844;53.360;9.738;2023-05-10T13:29:17;19.20;82.70
7606;DHT22;3844;53.360;9.738;2023-05-10T13:31:19;19.40;82.70
7606;DHT22;3844;53.360;9.738;2023-05-10T13:33:22;19.60;82.70
7606;DHT22;3844;53.360;9.738;2023-05-10T13:35:23;19.70;81.20
7606;DHT22;3844;53.360;9.738;2023-05-10T13:37:23;19.90;81.30
7606;DHT22;3844;53.360;9.738;2023-05-10T13:39:24;20.20;80.40
7606;DHT22;3844;53.360;9.738;2023-05-10T13:41:25;20.30;79.80
7606;DHT22;3844;53.360;9.738;2023-05-10T13:43:26;20.20;78.90
7606;DHT22;3844;53.360;9.738;2023-05-10T13:45:26;20.00;80.40
7606;DHT22;3844;53.360;9.738;2023-05-10T13:47:27;20.00;80.10
7606;DHT22;3844;53.360;9.738;2023-05-10T13:49:28;20.00;80.60
7606;DHT22;3844;53.360;9.738;2023-05-10T13:51:29;20.00;80.50
7606;DHT22;3844;53.360;9.738;2023-05-10T13:53:30;20.10;81.30
7606;DHT22;3844;53.360;9.738;2023-05-10T13:55:30;20.40;80.40
7606;DHT22;3844;53.360;9.738;2023-05-10T13:57:31;20.40;80.00
7606;DHT22;3844;53.360;9.738;2023-05-10T13:59:32;20.60;79.40